Latest Conditions
At L.F.Wade Int. Airport
Recorded at 10:55 am
Mostly Cloudy
Temp.: 
18°C/64°F
Humidity: 
59%
Wind: 
N 18KT
or 21mph
UV Index: 
5
Island Observations
Observations
Thursday, March 30, 2017

Observations are in local time and taken at least once an hour, or upon the start and end of specified events such as showers and thunderstorms.

Time Sky / Weather Wind Speed/Gusts Temp. R.H. Pressure
     knots (mph)  °C (°F)  %  mb / "Hg
 10:55 Mostly Cloudy  N 18/0 (21/0) 18(64) 59 1015 / 29.96
 09:55 Mostly Cloudy  N 17/27 (20/31) 18(64) 62 1014 / 29.94
 08:55 Mostly Cloudy  N 18/0 (21/0) 17(63) 71 1014 / 29.93
 07:55 Mostly Cloudy Showers NNW 16/0 (18/0) 18(64) 66 1012 / 29.89
 07:34 Mostly Cloudy Showers NNW 18/28 (21/32) 18(64) 69 1012 / 29.89
 07:29 Mostly Cloudy Showers N 18/0 (21/0) 18(64) 72 1012 / 29.89
 06:55 Mostly Cloudy Showers N 16/0 (18/0) 18(64) 75 1012 / 29.87
 06:43 Mostly Cloudy Showers N 15/0 (17/0) 18(65) 74 1011 / 29.86
 05:55 Mostly Cloudy Showers N 15/0 (17/0) 18(65) 68 1011 / 29.85
 04:55 Mostly Cloudy  N 17/0 (20/0) 19(66) 71 1010 / 29.83
 03:55 Mostly Cloudy  NNW 16/0 (18/0) 19(66) 76 1010 / 29.83
 03:14 Mostly Cloudy Showers NNW 18/0 (21/0) 19(67) 78 1010 / 29.83
 02:55 Mostly Cloudy Showers NW 20/0 (23/0) 19(67) 85 1010 / 29.84
 02:45 Mostly Cloudy Showers NW 18/0 (21/0) 19(67) 85 1010 / 29.84
 02:30 Mostly Cloudy Showers NW 17/0 (20/0) 19(66) 86 1010 / 29.84
 02:06 Overcast Showers WNW 18/0 (21/0) 19(66) 85 1010 / 29.84
 01:55 Mostly Cloudy Showers W 16/0 (18/0) 19(67) 85 1010 / 29.84
 01:33 Overcast Showers W 14/0 (16/0) 20(67) 80 1010 / 29.84
 00:55 Overcast Showers WNW 16/0 (18/0) 20(67) 79 1011 / 29.85
 00:46 Mostly Cloudy Showers WNW 16/0 (18/0) 20(67) 79 1011 / 29.85
 23:55 Mostly Cloudy  W 17/0 (20/0) 19(67) 76 1012 / 29.87
 22:55 Partly Cloudy  WNW 16/0 (18/0) 19(67) 74 1012 / 29.88
 21:55 Mostly Cloudy  WNW 13/0 (15/0) 20(67) 75 1012 / 29.89
 20:55 Partly Cloudy  WNW 12/0 (14/0) 19(67) 70 1012 / 29.89
 19:55 Partly Cloudy  WNW 14/0 (16/0) 19(67) 68 1012 / 29.87
 18:55 Partly Cloudy  WNW 11/0 (13/0) 20(68) 71 1012 / 29.87
 17:55 Few Clouds  NW 12/0 (14/0) 20(68) 72 1011 / 29.86
 16:55 Few Clouds  NNW 13/0 (15/0) 21(69) 70 1012 / 29.87
 16:44 Few Clouds  NW 14/0 (16/0) 21(69) 70 1012 / 29.87
 16:19 Mostly Cloudy  NW 14/0 (16/0) 21(70) 71 1012 / 29.87
 15:55 Partly Cloudy  NNW 11/0 (13/0) 21(70) 72 1012 / 29.87
 14:55 Few Clouds  NNW 10/0 (12/0) 21(70) 71 1012 / 29.89
 13:55 Few Clouds  NW 11/0 (13/0) 21(70) 71 1013 / 29.90
 12:55 Few Clouds  NNW 10/0 (12/0) 21(70) 72 1013 / 29.91
 11:55 Few Clouds  N 6/0 (7/0) 21(69) 76 1013 / 29.92
 11:37 Mostly Cloudy Showers N 7/0 (8/0) 20(69) 76 1014 / 29.93
 11:25 Mostly Cloudy Showers N 7/0 (8/0) 20(68) 75 1014 / 29.93
 10:55 Mostly Cloudy  NNW 6/0 (7/0) 20(69) 74 1014 / 29.93
 09:55 Few Clouds  NNW 6/0 (7/0) 20(68) 75 1013 / 29.92
 08:55 Few Clouds  NNW 6/0 (7/0) 19(67) 78 1013 / 29.92
 07:55 Few Clouds  N 5/0 (6/0) 18(65) 81 1013 / 29.91
 06:55 Few Clouds  N 5/0 (6/0) 18(65) 82 1012 / 29.89
 05:55 Partly Cloudy  N 6/0 (7/0) 18(65) 82 1012 / 29.89
 05:35 Partly Cloudy Showers NNE 6/0 (7/0) 18(65) 82 1012 / 29.89
 05:23 Mostly Cloudy Showers N 7/0 (8/0) 18(65) 82 1012 / 29.89
 04:55 Partly Cloudy  N 5/0 (6/0) 18(65) 82 1012 / 29.89
 03:55 Partly Cloudy  N 5/0 (6/0) 18(65) 83 1013 / 29.90
 02:55 Partly Cloudy  NNE 6/0 (7/0) 18(65) 83 1013 / 29.92
 01:55 Few Clouds  NNE 7/0 (8/0) 18(65) 83 1014 / 29.94
 00:55 Few Clouds  NNE 8/0 (9/0) 19(65) 84 1014 / 29.95
 23:55 Few Clouds  NNE 8/0 (9/0) 19(65) 83 1015 / 29.96
 22:55 Few Clouds  NNE 7/0 (8/0) 19(66) 82 1015 / 29.96
 21:55 Few Clouds  NE 8/0 (9/0) 19(66) 80 1015 / 29.96
 20:55 Partly Cloudy  NE 7/0 (8/0) 19(66) 82 1014 / 29.95
 19:55 Partly Cloudy  NE 7/0 (8/0) 19(67) 81 1014 / 29.95
 18:55 Partly Cloudy  NE 8/0 (9/0) 20(68) 78 1014 / 29.94
 17:55 Few Clouds  NE 9/0 (10/0) 20(69) 74 1014 / 29.93
 16:55 Few Clouds  ENE 11/0 (13/0) 21(70) 72 1014 / 29.94
 15:55 Partly Cloudy  NE 10/0 (12/0) 21(70) 72 1014 / 29.95
 14:55 Mostly Cloudy  NE 10/0 (12/0) 21(70) 72 1015 / 29.96
 13:55 Partly Cloudy  ENE 10/0 (12/0) 21(70) 72 1015 / 29.98
 12:55 Partly Cloudy  ENE 11/0 (13/0) 21(69) 70 1016 / 30.00
 11:55 Partly Cloudy  ENE 10/0 (12/0) 21(69) 74 1017 / 30.02
 10:55 Partly Cloudy  E 9/0 (10/0) 20(68) 76 1017 / 30.02
 09:55 Few Clouds  E 11/0 (13/0) 20(69) 80 1017 / 30.02
 08:55 Partly Cloudy  E 8/0 (9/0) 20(68) 82 1017 / 30.02
 07:55 Mostly Cloudy Showers E 12/0 (14/0) 19(66) 84 1017 / 30.02
 07:46 Mostly Cloudy Showers E 12/0 (14/0) 19(66) 84 1017 / 30.02
 07:39 Mostly Cloudy Showers E 10/0 (12/0) 19(67) 80 1017 / 30.02
 06:55 Mostly Cloudy Showers ENE 9/0 (10/0) 19(66) 81 1016 / 30.01
 05:55 Mostly Cloudy Showers E 10/0 (12/0) 19(66) 79 1016 / 29.99
 04:55 Mostly Cloudy  E 9/0 (10/0) 19(65) 78 1016 / 30.00
 03:55 Mostly Cloudy  E 10/0 (12/0) 19(66) 77 1017 / 30.02
 02:55 Overcast  E 11/0 (13/0) 19(66) 76 1017 / 30.04
 01:55 Overcast  E 12/0 (14/0) 19(66) 75 1018 / 30.07
 00:55 Overcast  ESE 11/0 (13/0) 19(66) 75 1019 / 30.09
 23:55 Overcast  ESE 13/0 (15/0) 19(66) 73 1019 / 30.10
 22:55 Overcast  E 13/0 (15/0) 19(66) 72 1020 / 30.11
 22:30 Overcast  E 13/0 (15/0) 19(66) 73 1020 / 30.11
 21:55 Overcast  E 12/0 (14/0) 19(66) 73 1020 / 30.11
 21:42 Overcast  E 13/0 (15/0) 19(66) 72 1020 / 30.11
 20:55 Overcast  ESE 14/0 (16/0) 19(66) 71 1019 / 30.10
 19:55 Overcast  E 14/0 (16/0) 19(66) 74 1019 / 30.10
 18:55 Overcast  E 13/0 (15/0) 19(67) 74 1020 / 30.11
 17:55 Overcast  E 14/0 (16/0) 20(67) 74 1020 / 30.12
 16:55 Overcast  E 14/0 (16/0) 20(68) 71 1021 / 30.14
 15:55 Overcast  E 14/0 (16/0) 20(68) 70 1021 / 30.15
 14:55 Overcast  ESE 12/0 (14/0) 20(69) 71 1021 / 30.16
 13:55 Overcast  ESE 13/0 (15/0) 21(69) 70 1022 / 30.18
 12:55 Overcast  ESE 12/0 (14/0) 20(69) 72 1022 / 30.19
 11:55 Overcast  ESE 12/0 (14/0) 20(68) 71 1023 / 30.21
 10:55 Overcast  ESE 12/0 (14/0) 20(68) 72 1023 / 30.22
 09:55 Mostly Cloudy  E 12/0 (14/0) 20(67) 72 1023 / 30.22
 08:55 Mostly Cloudy  E 12/0 (14/0) 19(66) 74 1023 / 30.21
 07:55 Overcast  E 11/0 (13/0) 18(65) 76 1023 / 30.20
 06:55 Overcast  E 11/0 (13/0) 18(64) 76 1022 / 30.19
 05:55 Overcast  E 11/0 (13/0) 18(65) 75 1022 / 30.19
 04:55 Mostly Cloudy  E 11/0 (13/0) 18(64) 75 1022 / 30.19
 03:55 Overcast  E 9/0 (10/0) 18(65) 75 1023 / 30.20
 03:44 Overcast  E 10/0 (12/0) 18(65) 74 1023 / 30.21
Observations from our AWOS sites are available here (password and username are both 'guest').